Time;durP1;ratioP1;P1;durP2;ratioP2;P2;SDS_P1;SDS_P2;PMS_P1;PMS_P2;Temp;Humidity;BMP_temperature;BMP_pressure;BME280_temperature;BME280_humidity;BME280_pressure;Samples;Min_cycle;Max_cycle;Signal;HPM_P1;HPM_P2
2022/11/18 00:01:10;;;;;;;8.60;3.88;;;;;;;0.94;62.48;99904.44;5029412;28;20061;-69
2022/11/18 00:03:37;;;;;;;8.90;4.40;;;;;;;0.81;63.10;99900.34;5023408;28;20301;-69
2022/11/18 00:06:03;;;;;;;9.70;4.88;;;;;;;1.29;61.67;99926.19;5029082;28;20029;-69
2022/11/18 00:08:29;;;;;;;9.20;4.43;;;;;;;1.55;60.88;99936.06;5017694;28;20052;-68
2022/11/18 00:10:54;;;;;;;10.45;5.53;;;;;;;1.57;60.65;99939.44;5025354;28;20021;-69
2022/11/18 00:16:09;;;;;;;8.40;4.72;;;;;;;1.69;60.19;99941.81;5026192;28;20171;-69
2022/11/18 00:18:35;;;;;;;10.75;5.35;;;;;;;1.61;60.78;99945.41;5024272;28;20045;-68
2022/11/18 00:21:06;;;;;;;10.65;4.93;;;;;;;1.47;60.69;99946.50;5029147;28;20057;-71
2022/11/18 00:23:32;;;;;;;7.63;4.32;;;;;;;1.37;60.92;99931.19;5024604;28;20041;-70
2022/11/18 00:26:03;;;;;;;7.20;4.22;;;;;;;1.11;61.56;99935.91;5012449;28;20039;-71
2022/11/18 00:28:30;;;;;;;7.90;4.10;;;;;;;1.49;60.68;99929.28;5017821;28;20053;-68
2022/11/18 00:31:04;;;;;;;9.75;4.38;;;;;;;1.26;61.36;99939.97;5025888;28;20045;-68
2022/11/18 00:33:30;;;;;;;9.63;4.75;;;;;;;1.04;61.88;99931.72;5024509;28;20072;-70
2022/11/18 00:35:56;;;;;;;10.02;5.57;;;;;;;1.14;61.38;99936.72;5023182;28;20518;-72
2022/11/18 00:38:21;;;;;;;10.05;4.88;;;;;;;1.17;61.60;99940.09;5024618;28;20077;-69
2022/11/18 00:40:47;;;;;;;9.82;4.70;;;;;;;1.19;61.51;99947.78;5022528;28;20068;-72
2022/11/18 00:43:12;;;;;;;7.72;4.10;;;;;;;1.40;60.87;99950.06;5011174;28;20077;-72
2022/11/18 00:45:37;;;;;;;10.30;4.45;;;;;;;1.00;61.77;99952.38;5023141;28;20121;-69
2022/11/18 00:48:03;;;;;;;7.68;3.45;;;;;;;0.93;62.27;99950.78;5030010;28;20047;-72
2022/11/18 00:50:29;;;;;;;11.45;5.13;;;;;;;0.80;62.42;99957.81;5011451;28;20033;-71
2022/11/18 00:52:54;;;;;;;9.50;4.05;;;;;;;0.92;62.39;99954.22;5009086;28;20045;-71
2022/11/18 00:55:20;;;;;;;9.85;4.88;;;;;;;1.12;61.81;99965.06;4997774;28;20059;-72
2022/11/18 00:57:45;;;;;;;8.35;4.65;;;;;;;1.31;61.05;99965.63;5026342;28;20600;-72
2022/11/18 01:00:11;;;;;;;9.73;5.22;;;;;;;1.13;61.33;99971.03;5027156;28;20038;-72
2022/11/18 01:02:37;;;;;;;12.57;4.50;;;;;;;1.02;62.00;99977.22;5025942;28;20053;-68
2022/11/18 01:05:03;;;;;;;10.60;4.25;;;;;;;1.14;61.89;99981.31;5024020;28;20021;-68
2022/11/18 01:07:29;;;;;;;9.50;4.18;;;;;;;1.45;60.68;99981.72;5022316;28;20057;-68
2022/11/18 01:09:56;;;;;;;12.27;6.00;;;;;;;1.30;61.13;99981.94;5024432;28;20040;-69
2022/11/18 01:15:07;;;;;;;10.52;4.72;;;;;;;1.10;61.54;99987.38;5024935;28;20040;-67
2022/11/18 01:17:32;;;;;;;11.73;4.75;;;;;;;1.20;61.18;99988.13;5023377;28;20433;-69
2022/11/18 01:19:58;;;;;;;9.57;4.28;;;;;;;0.92;62.45;99990.22;5025149;28;20033;-68
2022/11/18 01:22:23;;;;;;;11.13;5.70;;;;;;;1.10;61.56;99985.69;5023847;28;20067;-68
2022/11/18 01:24:48;;;;;;;14.45;5.20;;;;;;;1.20;61.27;99982.97;5025101;28;20029;-67
2022/11/18 01:27:14;;;;;;;7.03;4.60;;;;;;;1.17;61.63;99985.56;5008971;28;20053;-70
2022/11/18 01:29:39;;;;;;;9.55;5.18;;;;;;;1.49;60.57;99985.94;5024664;28;20032;-70
2022/11/18 01:32:05;;;;;;;9.50;4.53;;;;;;;1.36;60.85;99992.13;5025307;28;20044;-67
2022/11/18 01:34:30;;;;;;;9.77;4.13;;;;;;;0.91;62.12;99997.09;5024454;28;20029;-67
2022/11/18 01:36:57;;;;;;;8.45;4.60;;;;;;;1.01;61.79;99990.94;5023794;28;20080;-67
2022/11/18 01:39:23;;;;;;;10.68;5.28;;;;;;;1.08;62.10;99999.41;5024633;28;20033;-66
2022/11/18 01:41:48;;;;;;;9.57;5.20;;;;;;;1.13;61.48;100000.22;5022336;28;20071;-67
2022/11/18 01:44:51;;;;;;;11.40;5.70;;;;;;;0.67;62.78;100001.69;5025757;28;20743;-69
2022/11/18 01:47:17;;;;;;;9.35;4.28;;;;;;;0.87;62.13;100000.59;5022742;28;20040;-69
2022/11/18 01:49:43;;;;;;;11.70;3.88;;;;;;;0.75;62.59;99993.91;5024182;28;20028;-67
2022/11/18 01:52:09;;;;;;;9.82;4.15;;;;;;;0.82;62.37;100007.53;5021438;28;20041;-68
2022/11/18 01:54:40;;;;;;;12.07;5.63;;;;;;;0.84;62.13;100009.22;5024822;28;20090;-68
2022/11/18 01:57:16;;;;;;;11.88;4.53;;;;;;;0.53;63.12;100015.63;5023889;28;20134;-67
2022/11/18 01:59:43;;;;;;;13.20;6.50;;;;;;;0.94;61.92;100003.94;5023997;28;20029;-69
2022/11/18 02:02:13;;;;;;;14.63;5.50;;;;;;;0.78;62.09;100024.72;5023033;28;20045;-66
2022/11/18 02:04:43;;;;;;;8.70;4.10;;;;;;;0.80;61.81;100012.69;5023937;28;20044;-70
2022/11/18 02:07:09;;;;;;;10.43;5.35;;;;;;;0.73;62.62;100020.53;5013431;28;20153;-69
2022/11/18 02:09:38;;;;;;;12.30;5.20;;;;;;;0.89;61.98;100022.00;5028983;28;20052;-68
2022/11/18 02:12:05;;;;;;;12.70;5.68;;;;;;;0.84;62.26;100013.50;5027451;28;20041;-70
2022/11/18 02:14:43;;;;;;;12.70;6.15;;;;;;;0.98;61.66;100014.16;5028102;28;20940;-67
2022/11/18 02:17:28;;;;;;;14.07;4.93;;;;;;;0.75;62.62;100008.47;5030053;28;20049;-67
2022/11/18 02:20:28;;;;;;;11.75;5.95;;;;;;;0.87;62.02;100013.47;5027531;28;20045;-66
2022/11/18 02:22:56;;;;;;;12.75;7.20;;;;;;;1.07;61.49;100013.19;5005342;28;20470;-67
2022/11/18 02:26:04;;;;;;;14.18;6.43;;;;;;;0.97;61.98;99999.59;5027798;28;20098;-68
2022/11/18 02:29:08;;;;;;;7.70;4.68;;;;;;;1.01;61.64;100006.38;5027284;28;20046;-68
2022/11/18 02:31:48;;;;;;;15.57;6.40;;;;;;;0.89;61.62;100016.84;5027571;28;20174;-68
2022/11/18 02:34:23;;;;;;;12.45;5.53;;;;;;;1.05;61.46;100023.47;5018437;28;20124;-67
2022/11/18 02:37:03;;;;;;;10.73;5.85;;;;;;;1.40;60.03;100019.56;5027445;28;20040;-67
2022/11/18 02:39:46;;;;;;;12.32;4.75;;;;;;;1.45;60.05;100032.38;5027912;28;20029;-67
2022/11/18 02:42:14;;;;;;;9.43;5.28;;;;;;;1.17;61.05;100037.06;5028874;28;20052;-68
2022/11/18 02:44:43;;;;;;;11.52;5.10;;;;;;;0.95;61.56;100039.94;5027128;28;20084;-67
2022/11/18 02:47:13;;;;;;;9.52;5.00;;;;;;;1.12;61.09;100044.84;5043473;28;20057;-67
2022/11/18 02:49:43;;;;;;;12.25;4.70;;;;;;;1.40;60.35;100049.59;5037266;28;20037;-67
2022/11/18 02:52:11;;;;;;;12.43;5.40;;;;;;;1.17;60.88;100055.06;5040893;28;20049;-67
2022/11/18 02:54:40;;;;;;;10.23;4.93;;;;;;;1.01;61.16;100051.84;5040138;28;20486;-67
2022/11/18 02:57:07;;;;;;;13.63;4.72;;;;;;;1.17;60.83;100060.22;5041709;28;20040;-67
2022/11/18 02:59:33;;;;;;;10.20;4.82;;;;;;;0.99;61.02;100059.63;5038071;28;20053;-66
2022/11/18 03:01:58;;;;;;;11.95;4.90;;;;;;;1.04;61.18;100056.97;5038095;28;20533;-65
2022/11/18 03:04:25;;;;;;;11.35;5.15;;;;;;;1.07;60.88;100067.22;5039366;28;20513;-66
2022/11/18 03:07:16;;;;;;;9.38;4.93;;;;;;;1.10;60.77;100062.91;5038799;28;20065;-66
2022/11/18 03:09:46;;;;;;;13.70;4.35;;;;;;;0.95;61.09;100069.94;5038265;28;20032;-66
2022/11/18 03:12:39;;;;;;;12.00;5.22;;;;;;;1.08;60.53;100077.50;5039638;28;20049;-67
2022/11/18 03:15:31;;;;;;;14.32;5.00;;;;;;;1.07;60.36;100075.78;5040920;28;20060;-67
2022/11/18 03:18:14;;;;;;;8.75;5.28;;;;;;;1.07;60.61;100086.09;5029836;28;20926;-67
2022/11/18 03:20:57;;;;;;;15.50;5.75;;;;;;;1.47;59.36;100088.13;5037531;28;20037;-66
2022/11/18 03:23:30;;;;;;;10.15;5.13;;;;;;;1.47;59.35;100098.44;5035469;28;20041;-65
2022/11/18 03:26:06;;;;;;;12.75;5.45;;;;;;;1.41;59.30;100097.66;5037765;28;20122;-65
2022/11/18 03:28:39;;;;;;;10.73;4.82;;;;;;;1.36;59.60;100102.84;5016798;28;20776;-66
2022/11/18 03:31:14;;;;;;;10.57;4.65;;;;;;;1.50;59.16;100103.53;5029328;28;20056;-65
2022/11/18 03:33:47;;;;;;;13.73;6.18;;;;;;;1.54;58.72;100116.38;5023154;28;20041;-66
2022/11/18 03:36:15;;;;;;;16.13;5.15;;;;;;;1.32;59.15;100119.22;5028177;28;20050;-65
2022/11/18 03:38:51;;;;;;;17.85;5.20;;;;;;;1.15;59.69;100131.44;5023591;28;20595;-66
2022/11/18 03:41:19;;;;;;;12.73;6.25;;;;;;;1.42;59.25;100118.25;5027099;28;20044;-67
2022/11/18 03:43:54;;;;;;;8.48;4.97;;;;;;;1.47;59.00;100119.03;5027701;28;20409;-67
2022/11/18 03:46:33;;;;;;;13.45;4.75;;;;;;;1.37;58.99;100125.16;5030015;28;20041;-68
2022/11/18 03:48:59;;;;;;;11.13;4.07;;;;;;;0.96;60.08;100123.97;5027841;28;20079;-68
2022/11/18 03:51:35;;;;;;;10.32;5.05;;;;;;;0.93;59.86;100124.03;5027904;28;20132;-69
2022/11/18 03:54:19;;;;;;;9.05;4.40;;;;;;;0.83;60.06;100122.41;5010398;28;20047;-68
2022/11/18 03:56:51;;;;;;;9.65;4.50;;;;;;;0.84;60.19;100131.84;5026371;28;20033;-68
2022/11/18 03:59:22;;;;;;;;;;;;;;;0.74;60.28;100128.50;5030399;28;20117;-68
2022/11/18 04:01:53;;;;;;;13.23;5.00;;;;;;;0.76;60.44;100136.22;5026842;28;19917;-68
2022/11/18 04:04:20;;;;;;;8.60;5.35;;;;;;;0.86;59.95;100128.38;5024898;28;20044;-66
2022/11/18 04:06:49;;;;;;;10.00;5.15;;;;;;;0.96;59.42;100136.84;5024930;28;20627;-66
2022/11/18 04:09:23;;;;;;;10.98;5.07;;;;;;;1.04;59.46;100132.47;5026351;28;20060;-65
2022/11/18 04:12:04;;;;;;;8.43;4.47;;;;;;;0.80;59.72;100140.47;5023983;28;20138;-67
2022/11/18 04:14:36;;;;;;;11.48;5.93;;;;;;;0.80;59.71;100135.31;5024370;28;20043;-66
2022/11/18 04:17:23;;;;;;;12.82;6.13;;;;;;;0.95;59.44;100144.56;5023545;28;20061;-65
2022/11/18 04:19:48;;;;;;;13.13;6.18;;;;;;;0.64;60.08;100135.50;5027023;28;20047;-66
2022/11/18 04:22:14;;;;;;;9.38;5.00;;;;;;;0.50;60.34;100132.19;5026804;28;20033;-67
2022/11/18 04:24:40;;;;;;;14.07;6.55;;;;;;;0.62;59.94;100142.38;5024579;28;20037;-65
2022/11/18 04:27:05;;;;;;;11.15;5.88;;;;;;;0.66;60.10;100146.63;5023775;28;20041;-66
2022/11/18 04:29:32;;;;;;;16.80;5.25;;;;;;;0.77;59.79;100150.78;5026836;28;20113;-66
2022/11/18 04:31:59;;;;;;;11.38;5.72;;;;;;;0.56;60.34;100151.88;5021703;28;20413;-69
2022/11/18 04:34:25;;;;;;;17.75;6.90;;;;;;;0.61;59.92;100150.97;5023660;28;20743;-68
2022/11/18 04:36:50;;;;;;;13.93;5.63;;;;;;;0.53;59.98;100163.03;5024259;28;20041;-70
2022/11/18 04:39:17;;;;;;;13.65;5.60;;;;;;;0.43;60.15;100153.69;5023013;28;20036;-66
2022/11/18 04:41:55;;;;;;;11.48;5.75;;;;;;;0.54;59.56;100175.00;5013399;28;20029;-69
2022/11/18 04:44:26;;;;;;;14.90;6.28;;;;;;;0.47;60.19;100169.06;5023669;28;20101;-67
2022/11/18 04:46:53;;;;;;;17.60;6.75;;;;;;;0.46;59.72;100179.41;5023018;28;20082;-68
2022/11/18 04:49:18;;;;;;;12.05;5.38;;;;;;;0.43;59.94;100187.13;5024677;28;20506;-68
2022/11/18 04:51:45;;;;;;;14.98;6.03;;;;;;;0.73;59.11;100182.56;5020469;28;20034;-67
2022/11/18 04:54:11;;;;;;;10.45;5.32;;;;;;;0.63;59.70;100190.34;5025263;28;20037;-68
2022/11/18 04:56:37;;;;;;;13.25;7.15;;;;;;;0.66;59.43;100192.06;5021950;28;20043;-69
2022/11/18 04:59:03;;;;;;;11.90;5.55;;;;;;;0.65;59.28;100188.63;5021734;28;20104;-67
2022/11/18 05:01:30;;;;;;;13.90;6.10;;;;;;;0.52;59.82;100199.88;5023549;28;20032;-68
2022/11/18 05:03:56;;;;;;;13.55;5.93;;;;;;;0.69;59.07;100202.31;5024377;28;20053;-72
2022/11/18 05:06:22;;;;;;;12.57;6.43;;;;;;;0.67;59.61;100201.47;5025673;28;20048;-69
2022/11/18 05:08:48;;;;;;;20.50;7.30;;;;;;;0.66;59.36;100199.78;5022966;28;20123;-69
2022/11/18 05:13:58;;;;;;;8.50;4.95;;;;;;;0.52;59.81;100202.47;5022135;28;20098;-69
2022/11/18 05:16:23;;;;;;;14.88;6.78;;;;;;;0.53;59.54;100204.19;5024818;28;20048;-66
2022/11/18 05:18:49;;;;;;;16.13;7.85;;;;;;;0.54;59.47;100211.00;5007293;28;20045;-69
2022/11/18 05:21:14;;;;;;;14.48;6.40;;;;;;;0.68;59.32;100211.75;5023346;28;20040;-68
2022/11/18 05:23:40;;;;;;;17.58;6.90;;;;;;;0.11;60.43;100206.25;5023842;28;20049;-68
2022/11/18 05:26:07;;;;;;;15.02;6.03;;;;;;;0.24;60.06;100205.28;5022758;28;20021;-67
2022/11/18 05:28:33;;;;;;;11.38;6.25;;;;;;;0.50;59.26;100214.47;5023964;28;20041;-66
2022/11/18 05:30:59;;;;;;;13.40;5.63;;;;;;;0.36;59.52;100217.16;5023152;28;20112;-69
2022/11/18 05:33:25;;;;;;;13.50;5.68;;;;;;;0.57;59.03;100208.44;5025138;28;20048;-71
2022/11/18 05:35:50;;;;;;;15.27;5.90;;;;;;;0.43;59.65;100217.97;5022513;28;20047;-69
2022/11/18 05:38:16;;;;;;;13.75;6.15;;;;;;;0.34;59.66;100215.47;5024260;28;20053;-67
2022/11/18 05:40:42;;;;;;;16.10;8.10;;;;;;;0.40;59.28;100220.59;5022713;28;20041;-69
2022/11/18 05:43:11;;;;;;;11.45;5.18;;;;;;;0.42;59.57;100211.97;5023387;28;20037;-70
2022/11/18 05:45:38;;;;;;;13.07;6.22;;;;;;;0.28;59.81;100214.69;5008623;28;20043;-64
2022/11/18 05:48:05;;;;;;;18.05;7.75;;;;;;;0.21;59.80;100217.28;5022468;28;20637;-70
2022/11/18 05:50:34;;;;;;;14.65;6.35;;;;;;;0.23;59.65;100216.44;5026110;28;20092;-68
2022/11/18 05:52:59;;;;;;;17.00;7.72;;;;;;;0.19;60.08;100225.03;5022507;28;20033;-69
2022/11/18 05:55:34;;;;;;;18.23;7.20;;;;;;;0.15;59.72;100233.63;5024920;28;20037;-69
2022/11/18 05:57:59;;;;;;;16.50;6.53;;;;;;;0.14;59.61;100237.03;5014446;28;20048;-72
2022/11/18 06:00:25;;;;;;;20.30;7.00;;;;;;;0.07;59.83;100238.81;5014882;28;20128;-67
2022/11/18 06:02:53;;;;;;;13.10;6.40;;;;;;;0.01;59.97;100240.56;5002121;28;20105;-67
2022/11/18 06:05:20;;;;;;;16.20;6.32;;;;;;;0.11;59.47;100247.34;5004618;28;20033;-66
2022/11/18 06:07:46;;;;;;;11.27;6.15;;;;;;;-0.07;59.93;100253.47;5002166;28;20506;-67
2022/11/18 06:10:17;;;;;;;12.77;5.57;;;;;;;-0.17;60.18;100252.66;5019881;28;20084;-67
2022/11/18 06:12:46;;;;;;;8.93;4.43;;;;;;;-0.20;60.20;100242.41;5002779;28;20037;-66
2022/11/18 06:15:20;;;;;;;11.63;5.45;;;;;;;-0.38;60.36;100263.88;5019800;28;20030;-66
2022/11/18 06:17:51;;;;;;;11.30;5.05;;;;;;;-0.50;61.02;100270.78;5000170;28;20061;-66
2022/11/18 06:20:19;;;;;;;12.95;5.78;;;;;;;-0.32;60.70;100268.16;5019443;28;20103;-68
2022/11/18 06:22:46;;;;;;;12.07;6.25;;;;;;;-0.20;60.50;100272.38;5000928;28;20041;-67
2022/11/18 06:25:13;;;;;;;15.50;5.85;;;;;;;-0.08;59.97;100259.47;5019239;28;20351;-67
2022/11/18 06:27:38;;;;;;;13.48;5.95;;;;;;;-0.07;60.14;100268.03;5001978;28;20067;-66
2022/11/18 06:30:04;;;;;;;14.02;5.32;;;;;;;-0.55;61.29;100275.94;5004087;28;20402;-66
2022/11/18 06:32:30;;;;;;;16.70;6.13;;;;;;;0.04;59.51;100267.09;5010905;28;20048;-66
2022/11/18 06:34:55;;;;;;;14.48;6.47;;;;;;;0.44;58.48;100276.25;5020992;28;20230;-67
2022/11/18 06:37:21;;;;;;;12.73;6.50;;;;;;;0.31;58.94;100280.63;5017777;28;20042;-66
2022/11/18 06:39:46;;;;;;;13.38;6.88;;;;;;;0.41;59.05;100277.13;5004808;28;20041;-67
2022/11/18 06:43:37;;;;;;;13.07;5.82;;;;;;;0.48;58.74;100272.81;5009317;28;20045;-67
2022/11/18 06:44:57;;;;;;;13.25;5.57;;;;;;;0.48;58.33;100289.06;5022874;28;20143;-67
2022/11/18 06:47:23;;;;;;;12.82;6.50;;;;;;;0.65;58.29;100291.50;5022941;28;20199;-66
2022/11/18 06:49:48;;;;;;;16.20;6.15;;;;;;;0.81;58.02;100291.38;5025446;28;20029;-69
2022/11/18 06:52:14;;;;;;;14.05;6.60;;;;;;;0.79;57.24;100299.13;5019276;28;20693;-67
2022/11/18 06:54:39;;;;;;;13.15;5.93;;;;;;;0.53;58.64;100304.47;5007651;28;20711;-65
2022/11/18 06:57:05;;;;;;;15.80;6.97;;;;;;;0.41;58.67;100312.25;5011559;28;20053;-66
2022/11/18 06:59:31;;;;;;;17.90;6.60;;;;;;;0.11;59.48;100318.47;5026309;28;20045;-67
2022/11/18 07:01:56;;;;;;;15.70;6.20;;;;;;;0.38;58.59;100327.72;5026309;28;20052;-68
2022/11/18 07:04:22;;;;;;;15.98;7.32;;;;;;;0.37;58.40;100326.88;5011860;28;20041;-67
2022/11/18 07:06:47;;;;;;;14.02;5.90;;;;;;;0.35;58.35;100327.75;5025763;28;20039;-67
2022/11/18 07:09:13;;;;;;;12.05;6.70;;;;;;;-0.00;59.42;100339.06;5029014;28;20426;-68
2022/11/18 07:11:40;;;;;;;13.95;5.35;;;;;;;0.11;59.32;100345.00;5023646;28;20033;-67
2022/11/18 07:14:07;;;;;;;13.45;5.38;;;;;;;0.27;58.45;100351.75;5028130;28;20461;-68
2022/11/18 07:16:33;;;;;;;13.70;5.43;;;;;;;0.37;58.76;100351.72;5026806;28;20033;-66
2022/11/18 07:18:58;;;;;;;15.65;6.00;;;;;;;0.16;59.05;100361.25;5006700;28;20073;-67
2022/11/18 07:21:26;;;;;;;13.10;6.30;;;;;;;0.06;59.33;100375.03;5007324;28;20071;-68
2022/11/18 07:23:52;;;;;;;14.65;6.05;;;;;;;0.36;58.72;100374.00;5024295;28;20117;-66
2022/11/18 07:26:17;;;;;;;14.60;5.68;;;;;;;-0.05;59.32;100369.06;5026022;28;20081;-68
2022/11/18 07:28:43;;;;;;;15.00;7.32;;;;;;;0.14;59.04;100377.53;5024093;28;20033;-67
2022/11/18 07:31:11;;;;;;;14.25;7.22;;;;;;;0.42;57.99;100380.84;5011041;28;20094;-66
2022/11/18 07:33:37;;;;;;;16.45;8.55;;;;;;;0.16;58.63;100393.81;5022888;28;20049;-67
2022/11/18 07:36:08;;;;;;;18.88;7.32;;;;;;;0.04;58.81;100390.44;5022364;28;20037;-67
2022/11/18 07:38:34;;;;;;;13.25;6.53;;;;;;;0.02;59.05;100388.75;5025814;28;20429;-67
2022/11/18 07:41:06;;;;;;;14.00;6.93;;;;;;;0.14;58.68;100393.81;5010573;28;20033;-67
2022/11/18 07:43:35;;;;;;;18.98;6.82;;;;;;;0.27;58.29;100398.03;5022775;28;20622;-66
2022/11/18 07:46:10;;;;;;;13.15;6.70;;;;;;;-0.12;59.12;100399.06;5026779;28;20751;-67
2022/11/18 07:48:36;;;;;;;16.88;7.32;;;;;;;0.35;58.02;100410.00;5008481;28;20483;-67
2022/11/18 07:51:02;;;;;;;16.70;8.05;;;;;;;0.54;57.65;100409.03;5006929;28;20065;-66
2022/11/18 07:53:32;;;;;;;12.70;6.03;;;;;;;0.10;58.40;100414.38;5008434;28;20440;-66
2022/11/18 07:55:58;;;;;;;18.10;7.63;;;;;;;0.45;57.61;100414.22;5006328;28;20048;-67
2022/11/18 07:58:24;;;;;;;15.65;8.07;;;;;;;0.23;57.86;100416.03;5021572;28;20049;-67
2022/11/18 08:00:49;;;;;;;20.60;8.27;;;;;;;0.26;57.81;100427.19;5004642;28;20030;-69
2022/11/18 08:03:14;;;;;;;19.92;8.13;;;;;;;0.02;57.99;100423.00;5005709;28;20052;-68
2022/11/18 08:05:40;;;;;;;15.68;7.85;;;;;;;0.41;57.19;100427.97;5005931;28;20046;-68
2022/11/18 08:08:06;;;;;;;12.88;7.22;;;;;;;0.31;57.17;100426.31;5005719;28;20061;-66
2022/11/18 08:10:31;;;;;;;19.27;8.48;;;;;;;0.41;56.94;100445.94;5005754;28;20057;-70
2022/11/18 08:12:57;;;;;;;17.25;7.45;;;;;;;0.54;56.71;100442.47;5006339;28;20038;-67
2022/11/18 08:15:23;;;;;;;15.75;8.00;;;;;;;0.25;57.59;100446.00;5012196;28;20041;-66
2022/11/18 08:17:49;;;;;;;16.95;6.55;;;;;;;0.22;57.61;100443.47;5004965;28;20045;-67
2022/11/18 08:20:15;;;;;;;14.30;7.32;;;;;;;0.41;57.52;100441.69;5007024;28;20053;-65
2022/11/18 08:22:40;;;;;;;14.38;7.60;;;;;;;0.56;57.02;100443.31;5004742;28;20054;-67
2022/11/18 08:25:06;;;;;;;18.15;8.10;;;;;;;0.13;57.95;100456.38;5023015;28;20033;-68
2022/11/18 08:27:32;;;;;;;16.52;7.55;;;;;;;-0.04;58.50;100463.25;5018058;28;20537;-68
2022/11/18 08:29:57;;;;;;;16.80;8.30;;;;;;;-0.07;58.55;100461.56;5006241;28;20029;-68
2022/11/18 08:32:23;;;;;;;18.40;9.30;;;;;;;0.21;57.35;100457.19;5005392;28;20042;-68
2022/11/18 08:34:49;;;;;;;19.15;8.57;;;;;;;-0.08;58.18;100466.69;5003828;28;20083;-68
2022/11/18 08:37:15;;;;;;;19.55;8.88;;;;;;;-0.13;57.77;100475.25;5000418;28;20683;-69
2022/11/18 08:39:41;;;;;;;17.63;7.78;;;;;;;-0.40;58.65;100483.03;5005127;28;20124;-67
2022/11/18 08:42:08;;;;;;;16.92;8.60;;;;;;;-0.35;58.31;100479.59;5004760;28;20136;-67
2022/11/18 08:44:34;;;;;;;20.35;9.63;;;;;;;-0.23;57.71;100478.72;5004046;28;20041;-68
2022/11/18 08:46:59;;;;;;;21.67;8.10;;;;;;;-0.09;57.92;100485.56;5004335;28;20755;-68
2022/11/18 08:49:25;;;;;;;17.30;8.18;;;;;;;-0.33;58.34;100487.28;5004298;28;20145;-71
2022/11/18 08:51:50;;;;;;;18.33;9.88;;;;;;;-0.21;57.78;100489.84;5006053;28;20049;-69
2022/11/18 08:54:16;;;;;;;20.38;8.82;;;;;;;-0.24;58.07;100489.84;5002841;28;20064;-68
2022/11/18 08:56:41;;;;;;;24.63;9.77;;;;;;;-0.23;58.00;100494.13;5004117;28;20033;-67
2022/11/18 08:59:07;;;;;;;19.55;9.38;;;;;;;0.07;57.26;100489.78;5002010;28;20042;-68
2022/11/18 09:01:36;;;;;;;22.05;10.63;;;;;;;-0.10;58.04;100499.22;5002531;28;20037;-67
2022/11/18 09:04:02;;;;;;;17.83;8.77;;;;;;;-0.07;57.73;100505.25;5003522;28;20047;-68
2022/11/18 09:06:27;;;;;;;18.75;8.98;;;;;;;0.06;57.45;100501.78;5003688;28;20518;-67
2022/11/18 09:08:54;;;;;;;19.80;10.18;;;;;;;0.10;57.51;100512.03;5003521;28;20049;-67
2022/11/18 09:11:25;;;;;;;21.73;10.07;;;;;;;0.06;57.32;100506.91;5012166;28;20101;-68
2022/11/18 09:13:56;;;;;;;20.83;10.35;;;;;;;-0.19;58.21;100511.25;5004402;28;20034;-67
2022/11/18 09:16:26;;;;;;;26.70;9.73;;;;;;;-0.23;57.96;100512.13;5001875;28;20087;-68
2022/11/18 09:18:52;;;;;;;22.40;9.93;;;;;;;-0.27;58.25;100512.97;5000846;28;20105;-66
2022/11/18 09:21:18;;;;;;;22.27;9.43;;;;;;;-0.07;57.57;100514.66;5003358;28;20044;-67
2022/11/18 09:23:44;;;;;;;26.05;11.45;;;;;;;0.08;57.32;100530.06;5001679;28;20077;-66
2022/11/18 09:26:13;;;;;;;23.75;11.02;;;;;;;-0.09;57.36;100534.38;5005510;28;20029;-68
2022/11/18 09:28:39;;;;;;;20.65;9.82;;;;;;;0.17;57.10;100524.88;5000755;28;20652;-68
2022/11/18 09:31:06;;;;;;;22.30;10.40;;;;;;;0.09;57.47;100531.75;5005562;28;20037;-67
2022/11/18 09:33:33;;;;;;;23.30;10.90;;;;;;;-0.27;57.69;100523.25;5003847;28;20035;-68
2022/11/18 09:35:59;;;;;;;24.48;10.77;;;;;;;-0.31;58.08;100526.66;5020624;28;20124;-69
2022/11/18 09:38:24;;;;;;;24.67;11.93;;;;;;;-0.36;57.69;100538.66;5003513;28;20457;-67
2022/11/18 09:41:08;;;;;;;23.80;11.77;;;;;;;-0.40;58.28;100536.94;5002191;28;20095;-66
2022/11/18 09:43:52;;;;;;;22.55;10.48;;;;;;;-0.32;58.21;100540.38;5002271;28;20486;-67
2022/11/18 09:46:32;;;;;;;24.15;10.63;;;;;;;0.12;57.30;100542.00;5003482;28;20080;-68
2022/11/18 09:49:14;;;;;;;19.42;9.52;;;;;;;0.20;57.01;100552.28;5005837;28;20594;-67
2022/11/18 09:51:48;;;;;;;22.92;10.75;;;;;;;0.04;57.13;100570.31;5003485;28;20043;-68
2022/11/18 09:54:35;;;;;;;21.25;9.57;;;;;;;-0.23;57.71;100562.63;5011798;28;20087;-68
2022/11/18 09:57:01;;;;;;;22.65;9.65;;;;;;;-0.20;57.51;100566.03;5016606;28;20091;-68
2022/11/18 09:59:30;;;;;;;22.52;9.75;;;;;;;-0.32;57.72;100575.47;5005640;28;20156;-68
2022/11/18 10:02:02;;;;;;;22.75;10.00;;;;;;;-0.28;58.00;100569.47;5000755;28;20050;-66
2022/11/18 10:04:28;;;;;;;25.08;10.40;;;;;;;-0.36;57.76;100570.31;5005506;28;20502;-68
2022/11/18 10:06:53;;;;;;;23.00;10.10;;;;;;;-0.39;57.95;100578.03;5002051;28;20128;-67
2022/11/18 10:09:45;;;;;;;20.25;9.90;;;;;;;-0.30;57.14;100571.16;5004386;28;20034;-68
2022/11/18 10:12:35;;;;;;;20.13;9.70;;;;;;;-0.26;56.97;100584.03;4999265;28;20049;-67
2022/11/18 10:15:00;;;;;;;21.23;10.23;;;;;;;-0.31;57.14;100600.28;5003956;28;20046;-67
2022/11/18 10:17:35;;;;;;;23.35;9.98;;;;;;;-0.47;57.40;100587.44;5004190;28;20099;-68
2022/11/18 10:20:23;;;;;;;19.25;9.93;;;;;;;-0.34;56.92;100598.59;5007153;28;20066;-67
2022/11/18 10:22:55;;;;;;;20.48;8.98;;;;;;;-0.37;56.84;100604.59;5020034;28;20053;-68
2022/11/18 10:25:21;;;;;;;21.57;10.53;;;;;;;-0.18;56.17;100610.56;5004155;28;20045;-68
2022/11/18 10:27:48;;;;;;;20.75;10.77;;;;;;;-0.30;56.32;100610.59;5013503;28;20708;-67
2022/11/18 10:30:23;;;;;;;18.85;11.15;;;;;;;-0.31;56.32;100608.00;5007597;28;20498;-68
2022/11/18 10:33:20;;;;;;;23.23;9.90;;;;;;;-0.44;56.51;100614.81;5013057;28;20038;-67
2022/11/18 10:35:46;;;;;;;26.10;11.38;;;;;;;-0.36;55.83;100619.13;5004930;28;20049;-66
2022/11/18 10:38:12;;;;;;;19.52;9.25;;;;;;;-0.42;56.09;100619.09;5007290;28;20048;-67
2022/11/18 10:40:45;;;;;;;19.42;8.95;;;;;;;-0.47;56.22;100625.09;5004758;28;20033;-68
2022/11/18 10:43:12;;;;;;;20.00;9.18;;;;;;;-0.42;55.76;100625.97;5006817;28;20054;-67
2022/11/18 10:45:38;;;;;;;19.33;9.65;;;;;;;-0.20;55.52;100622.56;5011578;28;20034;-67
2022/11/18 10:48:17;;;;;;;20.70;9.85;;;;;;;-0.23;55.89;100630.28;5008678;28;20121;-68
2022/11/18 10:50:45;;;;;;;19.50;10.50;;;;;;;-0.17;55.41;100626.84;5006706;28;20041;-67
2022/11/18 10:53:31;;;;;;;18.65;9.50;;;;;;;-0.00;55.01;100634.56;5008731;28;20046;-67
2022/11/18 10:56:08;;;;;;;17.20;9.15;;;;;;;0.44;53.77;100641.38;5008297;28;20037;-67
2022/11/18 10:58:38;;;;;;;16.48;8.50;;;;;;;0.01;54.15;100642.28;5003209;28;20053;-67
2022/11/18 11:01:18;;;;;;;17.05;8.77;;;;;;;-0.35;55.36;100633.69;5022358;28;20038;-67
2022/11/18 11:04:15;;;;;;;17.90;8.85;;;;;;;-0.16;55.34;100641.41;5003598;28;20351;-68
2022/11/18 11:06:41;;;;;;;17.70;8.73;;;;;;;-0.46;55.55;100640.53;5007265;28;20167;-66
2022/11/18 11:09:11;;;;;;;17.33;8.52;;;;;;;-0.22;55.17;100641.41;5007410;28;20037;-67
2022/11/18 11:11:53;;;;;;;16.25;7.85;;;;;;;-0.27;54.93;100641.38;5004160;28;20037;-68
2022/11/18 11:14:49;;;;;;;20.80;9.10;;;;;;;-0.07;54.34;100651.69;5007645;28;20113;-67
2022/11/18 11:17:31;;;;;;;15.65;8.45;;;;;;;-0.22;54.96;100654.25;5011560;28;20045;-68
2022/11/18 11:20:14;;;;;;;;;;;;;;;-0.36;55.01;100644.81;5024764;28;20048;-68
2022/11/18 11:22:40;;;;;;;18.63;9.63;;;;;;;-0.22;55.17;100655.09;5004237;28;19951;-66
2022/11/18 11:25:25;;;;;;;15.43;8.05;;;;;;;-0.20;54.67;100653.38;5009993;28;20040;-67
2022/11/18 11:28:12;;;;;;;18.20;8.88;;;;;;;-0.38;54.96;100649.06;5004190;28;20042;-68
2022/11/18 11:30:49;;;;;;;17.40;8.82;;;;;;;-0.22;54.76;100654.25;5005418;28;20060;-66
2022/11/18 11:33:20;;;;;;;17.63;9.40;;;;;;;0.08;54.17;100663.69;5005395;28;20471;-66
2022/11/18 11:35:55;;;;;;;15.98;9.27;;;;;;;0.14;54.16;100662.81;5004168;28;20037;-67
2022/11/18 11:38:42;;;;;;;14.27;7.70;;;;;;;0.17;53.36;100666.25;5006297;28;20774;-67
2022/11/18 11:41:29;;;;;;;15.65;8.20;;;;;;;0.13;53.61;100676.53;5012732;28;20410;-67
2022/11/18 11:44:06;;;;;;;18.73;8.30;;;;;;;0.36;53.35;100681.66;5000035;28;20037;-67
2022/11/18 11:50:52;;;;;;;17.55;7.82;;;;;;;0.31;53.57;100680.81;5020007;28;20559;-68